Etusivu
METAR-TAF:

METAR-TAF

Lentoasemat :

Penticton, Brittiläinen Kolumbia, Kanada

Leveyspiiri: 49-28N, Pituuspiiri: 119-36W, korkeus merenpinnasta: 344 m

Tämänhetkinen sää

Tämä raportti tehtiin 48 minuuttia sitten, kello 13.00 UTC
Tuuli 7 kn pohjoisesta
Lämpötila 0°C
Kosteus 74%
Ilmanpaine 1026 hPa
Näkyvyys: 24.1 km
selkeää

METAR: CYYF 251300Z 35007KT 15SM SKC 00/M04 A3029 RMK SLP266

Aika: 06:48 (13:48 UTC)

Sääennuste

Tämä raportti tehtiin 1 tunti ja 10 minuuttia sitten, kello 12.38 UTC
Ennuste voimassa 25. päivästä klo 13 UTC - 26. päivään klo 01 UTC
Tuuli 7 kn pohjoisesta
Näkyvyys: 10 km
selkeää

TAF: CYYF 251238Z 2513/2601 01007KT P6SM SKC RMK NXT FCST BY 251900Z

Säähavainnot ja -ennusteet yli 4000 lentoasemalta (METAR- ja TAF-raportit).

Käytössä olevat sääasemat on merkitty karttaan keltaisilla ja punaisilla pisteillä.

Aseta hiiri pisteen päälle nähdäksesi sääaseman nimen.

Klikkaa sitten nähdäksesi säähavainnot ja -ennusteet.

Kartan vaihtaminen: klikkaa mustalla rastilla varustettuja vihreitä pisteitä, niin voit zoomata sisään; viivalla varustettua vihreää pistettä, niin voit zoomata ulos tai vihreitä nuolia, niin pääset viereisille kartoille.


METAR-TAF: